New Ulm, MN

9:33 PM CST on December 08, 2019 (GMT -0600)
Martin Luther College | | Change Station
Active Advisory: Special Statement

Elev 980 ft 44.31 °N, 94.47 °W | Updated 5 seconds ago

Overcast
Overcast
29.4 °F
Feels Like 29 °F
N
2
Wind Variable Wind from SE
Gusts 6.0 mph

Today
High -- | Low -- °F
--% Chance of Precip.
Yesterday
High -- | Low -- °F
Precip. -- in
Pressure 29.73 in
Visibility 3.0 miles
Clouds Overcast 300 ft
Windchill 29 °F
Dew Point 28 °F
Humidity 93%
Rainfall 0.00 in
Snow Depth Not available.
7:40 AM 4:38 PM
Waxing Gibbous, 90% visible
METAR KULM 090316Z AUTO 15003KT 3SM BR OVC003 M02/M03 A2973 RMK AO2
Pressure 29.73 in
Visibility 3.0 miles
Clouds Overcast 300 ft
Windchill 29 °F
Dew Point 28 °F
Humidity 93%
Rainfall 0.00 in
Snow Depth Not available.
7:40 AM 4:38 PM
Waxing Gibbous, 90% visible
METAR KULM 090316Z AUTO 15003KT 3SM BR OVC003 M02/M03 A2973 RMK AO2

Get Your Daily Forecast Email!

Thanks for signing up!

Be on the lookout for a verification email in your inbox.

You'll start receiving severe weather alerts in your inbox..

×

10-Day Weather Forecast

Almanac

Astronomy

Dec. 08, 2019 Rise Set
Actual Time
Civil Twilight
Nautical Twilight
Astronomical Twilight
Moon
Length of Visible Light
Length of Day
Tomorrow will be .
, % of the Moon is Illuminated

Today's Extremes

State Highs State Lows

Community

WunderPhotos

Category 6

Welcome to Category 6. This is the collective home for Weather Underground's featured writeups by Dr. Jeff Masters (right), Bob Henson (left), Chris Burt, and other regular contributors.

Nearby

Air Quality

  Air Quality AQ Index Pollutant
Not available.

Snow Depth

Station Depth Elevation

Earthquake Activity

City Distance Mag. Time & Date
Minimum magnitude displayed is 2.5.

Coastal Water Temperatures

Place Temperature

Stations

Nearby Weather Stations

Station Location Temp. Windchill Dew Point Humidity Wind Precip. Elev Updated Type
                   

Watches & Warnings

Special Statement
Issued: 9:07 PM CST Dec. 8, 2019 – National Weather Service

... Areas of freezing drizzle followed by snow and wind will impact
Monday morning travel...

.Expect slow travel and slick roads Monday morning. We could see
a light glaze of ice overnight, followed by a band of snow that
could put down a quick 1 to 2 inches of snow. Temperatures will
fall throughout the day.


Jrb